W88 weather

Air Harbor Airport
Greensboro, North Carolina, United States

Public forecast

Using degrees Fahrenheit for public forecast. Weather courtesy of forecast.io.

METAR (pilot weather report)

Closest report is Piedmont Triad International Airport, 7.9 nm (14.7 km) SW. Retrieved 2019/07/17 17:54 UTC (10 minutes ago):

KGSO 171754Z 24012G22KT 10SM SCT060TCU SCT150 OVC250 35/20 A3005 RMK AO2 SLP162 TCU NE AND SE T03500200 10350 20250 58010

TAF (pilot weather forecast)

Closest forecast is Piedmont Triad International Airport, 7.9 nm (14.7 km) SW. Retrieved 2019/07/17 18:36 UTC (0 seconds ago):

TAF KGSO 171733Z 1718/1818 23013KT P6SM FEW050 BKN250 FM172100 22010G15KT P6SM VCTS BKN050CB FM180100 23008KT P6SM BKN120 FM180800 24004KT P6SM SCT250 FM181600 27005KT P6SM BKN040